Time;durP1;ratioP1;P1;durP2;ratioP2;P2;SDS_P1;SDS_P2;PMS_P1;PMS_P2;Temp;Humidity;BMP_temperature;BMP_pressure;BME280_temperature;BME280_humidity;BME280_pressure;Samples;Min_cycle;Max_cycle;Signal;HPM_P1;HPM_P2
2023/05/06 00:01:36;;;;;;;17.03;8.27;;;11.50;99.90;;;;;;5026497;28;20116;-72
2023/05/06 00:04:02;;;;;;;15.67;8.17;;;11.50;99.90;;;;;;5024037;28;20536;-68
2023/05/06 00:06:27;;;;;;;13.20;8.27;;;11.50;99.90;;;;;;5030365;28;20065;-68
2023/05/06 00:08:53;;;;;;;15.27;8.00;;;11.50;99.90;;;;;;5032859;28;20026;-68
2023/05/06 00:11:19;;;;;;;12.77;7.43;;;11.50;99.90;;;;;;5015173;28;20052;-68
2023/05/06 00:13:45;;;;;;;11.15;7.28;;;11.50;99.90;;;;;;5028406;28;20037;-69
2023/05/06 00:16:11;;;;;;;10.37;7.07;;;11.40;99.90;;;;;;5032803;28;20029;-69
2023/05/06 00:18:37;;;;;;;14.00;7.57;;;11.30;99.90;;;;;;5028946;28;20030;-68
2023/05/06 00:21:02;;;;;;;11.53;8.03;;;11.30;99.90;;;;;;5023464;28;20036;-68
2023/05/06 00:23:28;;;;;;;15.27;8.37;;;11.30;99.90;;;;;;5026799;28;20029;-69
2023/05/06 00:25:54;;;;;;;11.90;7.30;;;11.30;99.90;;;;;;5030865;28;20078;-68
2023/05/06 00:28:20;;;;;;;16.27;9.47;;;11.20;99.90;;;;;;5027151;28;20018;-75
2023/05/06 00:30:46;;;;;;;16.47;9.47;;;11.20;99.90;;;;;;5030151;28;20060;-68
2023/05/06 00:33:11;;;;;;;16.33;10.83;;;11.20;99.90;;;;;;5024946;28;20034;-68
2023/05/06 00:35:37;;;;;;;17.20;10.00;;;11.20;99.90;;;;;;5024292;28;20028;-68
2023/05/06 00:38:08;;;;;;;13.45;9.73;;;11.20;99.90;;;;;;5034993;28;20025;-68
2023/05/06 00:40:34;;;;;;;14.85;9.90;;;11.10;99.90;;;;;;5029049;28;20121;-71
2023/05/06 00:43:01;;;;;;;13.82;8.82;;;11.10;99.90;;;;;;5035179;28;20404;-68
2023/05/06 00:45:27;;;;;;;12.93;9.13;;;11.20;99.90;;;;;;5037202;28;20412;-70
2023/05/06 00:47:53;;;;;;;16.80;6.37;;;11.20;99.90;;;;;;5024887;28;20026;-68
2023/05/06 00:50:20;;;;;;;7.97;5.37;;;11.20;99.90;;;;;;5031964;28;20021;-72
2023/05/06 00:52:46;;;;;;;19.05;5.22;;;11.20;99.90;;;;;;5029846;28;20030;-76
2023/05/06 00:55:13;;;;;;;8.73;5.22;;;11.10;99.90;;;;;;5033316;28;20057;-68
2023/05/06 00:57:39;;;;;;;;;;;11.10;99.90;;;;;;5036288;28;20410;-68
2023/05/06 01:00:06;;;;;;;17.73;9.60;;;11.10;99.90;;;;;;5032205;28;20013;-71
2023/05/06 01:02:32;;;;;;;17.13;11.05;;;11.00;99.90;;;;;;5026767;28;20021;-71
2023/05/06 01:04:59;;;;;;;19.10;11.50;;;11.00;99.90;;;;;;5033338;28;20021;-73
2023/05/06 01:07:41;;;;;;;21.85;12.43;;;11.10;99.90;;;;;;5021265;28;20048;-70
2023/05/06 01:10:34;;;;;;;18.55;11.32;;;11.10;99.90;;;;;;5027523;28;20042;-75
2023/05/06 01:13:15;;;;;;;19.95;11.25;;;11.10;99.90;;;;;;5018172;28;20045;-69
2023/05/06 01:15:45;;;;;;;19.13;11.18;;;11.10;99.90;;;;;;5023931;28;20076;-70
2023/05/06 01:18:16;;;;;;;15.95;10.23;;;11.10;99.90;;;;;;5028728;28;20095;-68
2023/05/06 01:20:45;;;;;;;19.83;11.00;;;11.10;99.90;;;;;;5025135;28;20072;-70
2023/05/06 01:23:12;;;;;;;15.77;9.50;;;11.00;99.90;;;;;;5037165;28;20022;-68
2023/05/06 01:25:38;;;;;;;15.43;9.73;;;11.00;99.90;;;;;;5031610;28;20021;-68
2023/05/06 01:28:09;;;;;;;41.17;9.55;;;11.00;99.90;;;;;;5034386;28;20115;-71
2023/05/06 01:30:56;;;;;;;14.82;9.55;;;10.90;99.90;;;;;;5026466;28;20044;-68
2023/05/06 01:34:01;;;;;;;13.60;9.07;;;10.90;99.90;;;;;;5020309;28;20055;-67
2023/05/06 01:36:43;;;;;;;13.93;8.70;;;10.80;99.90;;;;;;5033031;28;20037;-67
2023/05/06 01:39:23;;;;;;;13.00;8.57;;;10.80;99.90;;;;;;5022295;28;20033;-66
2023/05/06 01:41:52;;;;;;;12.73;8.10;;;10.80;99.90;;;;;;5023938;28;20060;-68
2023/05/06 01:44:21;;;;;;;15.77;7.82;;;10.80;99.90;;;;;;5030829;28;20037;-66
2023/05/06 01:46:48;;;;;;;12.98;8.38;;;10.70;99.90;;;;;;5033800;28;20053;-67
2023/05/06 01:49:16;;;;;;;12.82;8.20;;;10.70;99.90;;;;;;5022138;28;20021;-68
2023/05/06 01:51:47;;;;;;;15.82;9.82;;;10.70;99.90;;;;;;5023584;28;20033;-67
2023/05/06 01:54:13;;;;;;;15.55;9.15;;;10.60;99.90;;;;;;5034268;28;20044;-67
2023/05/06 01:56:39;;;;;;;16.50;9.38;;;10.60;99.90;;;;;;5024873;28;20057;-67
2023/05/06 01:59:05;;;;;;;15.60;9.87;;;10.50;99.90;;;;;;5020121;28;20068;-67
2023/05/06 02:01:31;;;;;;;24.27;11.20;;;10.40;99.90;;;;;;5034469;28;20025;-66
2023/05/06 02:03:57;;;;;;;17.70;10.55;;;10.40;99.90;;;;;;5029663;28;20060;-67
2023/05/06 02:06:22;;;;;;;19.77;10.73;;;10.50;99.90;;;;;;5022579;28;20328;-67
2023/05/06 02:08:48;;;;;;;16.87;11.43;;;10.50;99.90;;;;;;5022971;28;20046;-70
2023/05/06 02:11:14;;;;;;;17.33;10.00;;;10.50;99.90;;;;;;5032065;28;20118;-67
2023/05/06 02:13:40;;;;;;;12.63;7.60;;;10.50;99.90;;;;;;5033749;28;20168;-66
2023/05/06 02:16:06;;;;;;;16.10;10.10;;;10.50;99.90;;;;;;5033849;28;20308;-68
2023/05/06 02:18:31;;;;;;;17.93;10.70;;;10.50;99.90;;;;;;5033178;28;20436;-68
2023/05/06 02:20:57;;;;;;;21.87;11.77;;;10.50;99.90;;;;;;5033838;28;20042;-66
2023/05/06 02:23:23;;;;;;;17.43;10.27;;;10.50;99.90;;;;;;5024752;28;20354;-66
2023/05/06 02:25:50;;;;;;;20.10;11.90;;;10.50;99.90;;;;;;5034522;28;20413;-66
2023/05/06 02:28:16;;;;;;;21.40;11.02;;;10.50;99.90;;;;;;5028783;28;20044;-67
2023/05/06 02:30:42;;;;;;;18.20;10.93;;;10.50;99.90;;;;;;5024394;28;20038;-66
2023/05/06 02:33:08;;;;;;;17.27;10.73;;;10.50;99.90;;;;;;5032127;28;20490;-67
2023/05/06 02:35:33;;;;;;;16.90;11.03;;;10.50;99.90;;;;;;5026179;28;20314;-67
2023/05/06 02:38:00;;;;;;;21.60;11.07;;;10.50;99.90;;;;;;5026453;28;20290;-67
2023/05/06 02:40:26;;;;;;;13.73;9.38;;;10.50;99.90;;;;;;5032252;28;20025;-66
2023/05/06 02:42:51;;;;;;;21.33;10.73;;;10.50;99.90;;;;;;5024002;28;20402;-67
2023/05/06 02:45:17;;;;;;;19.50;11.77;;;10.50;99.90;;;;;;5015012;28;20104;-67
2023/05/06 02:47:43;;;;;;;15.23;10.97;;;10.50;99.90;;;;;;5025645;28;20023;-79
2023/05/06 02:50:09;;;;;;;15.90;9.93;;;10.50;99.90;;;;;;5018477;28;20040;-84
2023/05/06 02:52:35;;;;;;;16.57;10.80;;;10.60;99.90;;;;;;5033967;28;20404;-87
2023/05/06 02:55:01;;;;;;;16.50;10.03;;;10.60;99.90;;;;;;5031277;28;20030;-66
2023/05/06 02:57:27;;;;;;;21.53;11.73;;;10.50;99.90;;;;;;5021839;28;20463;-83
2023/05/06 02:59:52;;;;;;;15.03;10.90;;;10.50;99.90;;;;;;5030046;28;20502;-66
2023/05/06 03:02:18;;;;;;;22.33;13.33;;;10.60;99.90;;;;;;5035068;28;20304;-66
2023/05/06 03:04:43;;;;;;;20.60;13.57;;;10.60;99.90;;;;;;5031757;28;20412;-67
2023/05/06 03:07:09;;;;;;;22.47;12.30;;;10.50;99.90;;;;;;5034954;28;20024;-65
2023/05/06 03:09:35;;;;;;;20.27;12.47;;;10.60;99.90;;;;;;5030579;28;20040;-66
2023/05/06 03:12:01;;;;;;;22.07;12.83;;;10.60;99.90;;;;;;5029037;28;20412;-66
2023/05/06 03:14:27;;;;;;;23.67;12.77;;;10.60;99.90;;;;;;5033105;28;20025;-66
2023/05/06 03:16:52;;;;;;;22.38;12.43;;;10.60;99.90;;;;;;5035107;28;20022;-86
2023/05/06 03:19:18;;;;;;;20.23;12.20;;;10.60;99.90;;;;;;5017239;28;20030;-67
2023/05/06 03:21:44;;;;;;;24.23;13.10;;;10.60;99.90;;;;;;5033209;28;20025;-84
2023/05/06 03:24:10;;;;;;;20.73;12.10;;;10.60;99.90;;;;;;5016165;28;20033;-66
2023/05/06 03:26:36;;;;;;;21.40;12.57;;;10.60;99.90;;;;;;5023417;28;20033;-66
2023/05/06 03:29:02;;;;;;;21.13;13.30;;;10.60;99.90;;;;;;5029771;28;20048;-84
2023/05/06 03:31:27;;;;;;;21.33;12.87;;;10.70;99.90;;;;;;5026413;28;20050;-66
2023/05/06 03:33:53;;;;;;;19.10;12.87;;;10.60;99.90;;;;;;5026919;28;20040;-84
2023/05/06 03:36:20;;;;;;;17.77;11.17;;;10.70;99.90;;;;;;5032094;28;20116;-66
2023/05/06 03:38:46;;;;;;;21.42;11.73;;;10.60;99.90;;;;;;5034713;28;20273;-67
2023/05/06 03:41:12;;;;;;;18.13;10.63;;;10.60;99.90;;;;;;5021679;28;20018;-66
2023/05/06 03:43:38;;;;;;;17.53;10.90;;;10.60;99.90;;;;;;5033958;28;20312;-67
2023/05/06 03:46:03;;;;;;;19.40;12.07;;;10.60;99.90;;;;;;5027829;28;20034;-66
2023/05/06 03:48:30;;;;;;;21.60;12.53;;;10.60;99.90;;;;;;5032772;28;20021;-66
2023/05/06 03:50:55;;;;;;;21.45;12.80;;;10.60;99.90;;;;;;5019108;28;20061;-66
2023/05/06 03:53:21;;;;;;;19.27;12.43;;;10.60;99.90;;;;;;5022293;28;20037;-66
2023/05/06 03:55:47;;;;;;;18.90;12.33;;;10.60;99.90;;;;;;5019650;28;20088;-66
2023/05/06 03:58:13;;;;;;;26.33;12.30;;;10.50;99.90;;;;;;5026468;28;20030;-66
2023/05/06 04:00:38;;;;;;;22.27;12.23;;;10.50;99.90;;;;;;5013878;28;20084;-66
2023/05/06 04:03:04;;;;;;;24.63;12.90;;;10.50;99.90;;;;;;5022387;28;20030;-66
2023/05/06 04:05:30;;;;;;;22.33;13.43;;;10.50;99.90;;;;;;5020704;28;20057;-66
2023/05/06 04:07:56;;;;;;;82.80;13.27;;;10.40;99.90;;;;;;5034192;28;20151;-66
2023/05/06 04:10:21;;;;;;;66.87;9.90;;;10.40;99.90;;;;;;5019454;28;20435;-66
2023/05/06 04:12:47;;;;;;;28.57;7.90;;;10.30;99.90;;;;;;5023470;28;20041;-66
2023/05/06 04:15:13;;;;;;;55.43;9.73;;;10.30;99.90;;;;;;5017298;28;20022;-86
2023/05/06 04:17:38;;;;;;;50.50;10.37;;;10.20;99.90;;;;;;5025889;28;20053;-66
2023/05/06 04:20:06;;;;;;;160.43;12.33;;;10.20;99.90;;;;;;5030785;28;20026;-85
2023/05/06 04:22:32;;;;;;;38.10;9.95;;;10.20;99.90;;;;;;5029155;28;20092;-66
2023/05/06 04:24:59;;;;;;;171.00;14.32;;;10.20;99.90;;;;;;5025945;28;20125;-84
2023/05/06 04:27:26;;;;;;;247.10;14.82;;;10.20;99.90;;;;;;5027411;28;21455;-66
2023/05/06 04:29:52;;;;;;;112.15;11.25;;;10.20;99.90;;;;;;5028140;28;20069;-84
2023/05/06 04:32:19;;;;;;;177.80;11.90;;;10.10;99.90;;;;;;5031486;28;20060;-66
2023/05/06 04:34:46;;;;;;;123.35;10.35;;;10.10;99.90;;;;;;5018635;28;20028;-81
2023/05/06 04:37:12;;;;;;;69.78;9.32;;;10.10;99.90;;;;;;5014336;28;20321;-66
2023/05/06 04:39:38;;;;;;;155.95;11.45;;;10.10;99.90;;;;;;5013613;28;20037;-66
2023/05/06 04:42:04;;;;;;;147.20;12.00;;;10.00;99.90;;;;;;5022560;28;20021;-66
2023/05/06 04:44:32;;;;;;;84.10;11.07;;;10.00;99.90;;;;;;5029002;28;20080;-67
2023/05/06 04:46:58;;;;;;;52.30;10.98;;;10.00;99.90;;;;;;5019074;28;20424;-66
2023/05/06 04:49:24;;;;;;;47.93;12.37;;;10.10;99.90;;;;;;5027254;28;20071;-66
2023/05/06 04:51:50;;;;;;;24.05;13.32;;;10.10;99.90;;;;;;5030757;28;20320;-85
2023/05/06 04:54:16;;;;;;;30.10;14.70;;;10.20;99.90;;;;;;5028217;28;20040;-66
2023/05/06 04:56:41;;;;;;;23.50;14.87;;;10.30;99.90;;;;;;5026154;28;20593;-65
2023/05/06 04:59:07;;;;;;;21.83;14.60;;;10.30;99.90;;;;;;5022976;28;20398;-66
2023/05/06 05:01:33;;;;;;;26.17;16.77;;;10.40;99.90;;;;;;5022826;28;20427;-66
2023/05/06 05:03:59;;;;;;;25.40;16.63;;;10.50;99.90;;;;;;5023210;28;20034;-66
2023/05/06 05:06:24;;;;;;;30.13;17.17;;;10.50;99.90;;;;;;5023348;28;20036;-67
2023/05/06 05:08:50;;;;;;;29.00;18.83;;;10.50;99.90;;;;;;5027472;28;20048;-66
2023/05/06 05:11:16;;;;;;;31.27;18.70;;;10.60;99.90;;;;;;5023953;28;20025;-71
2023/05/06 05:13:42;;;;;;;34.47;19.50;;;10.70;99.90;;;;;;5029167;28;20044;-66
2023/05/06 05:16:08;;;;;;;32.40;19.30;;;10.80;99.90;;;;;;5033561;28;20038;-66
2023/05/06 05:18:33;;;;;;;32.40;19.83;;;11.00;99.90;;;;;;5032405;28;20045;-84
2023/05/06 05:20:59;;;;;;;34.23;20.03;;;11.00;99.90;;;;;;5034075;28;20017;-86
2023/05/06 05:23:25;;;;;;;31.77;20.53;;;11.10;99.90;;;;;;5033588;28;20416;-66
2023/05/06 05:25:51;;;;;;;39.23;21.27;;;11.20;99.90;;;;;;5028272;28;20049;-81
2023/05/06 05:28:17;;;;;;;30.65;19.60;;;11.40;99.90;;;;;;5033316;28;20416;-67
2023/05/06 05:30:43;;;;;;;38.30;21.93;;;11.40;99.90;;;;;;5026393;28;20053;-66
2023/05/06 05:33:09;;;;;;;40.30;22.20;;;11.50;99.90;;;;;;5034768;28;20420;-66
2023/05/06 05:35:35;;;;;;;38.90;21.27;;;11.50;99.90;;;;;;5032420;28;20033;-66
2023/05/06 05:38:01;;;;;;;37.03;21.53;;;11.60;99.90;;;;;;5027672;28;20365;-67
2023/05/06 05:40:26;;;;;;;29.27;19.07;;;11.70;99.90;;;;;;5026238;28;20109;-66
2023/05/06 05:42:52;;;;;;;34.63;21.30;;;11.80;99.90;;;;;;5024459;28;20026;-66
2023/05/06 05:45:20;;;;;;;35.43;20.00;;;11.90;99.90;;;;;;5029065;28;20061;-67
2023/05/06 05:47:45;;;;;;;35.58;21.13;;;11.90;99.90;;;;;;5035094;28;20686;-72
2023/05/06 05:50:11;;;;;;;33.77;20.13;;;11.90;99.90;;;;;;5028147;28;20076;-66
2023/05/06 05:52:37;;;;;;;33.53;20.83;;;12.00;99.90;;;;;;5028839;28;20059;-67
2023/05/06 05:55:03;;;;;;;32.83;19.53;;;12.10;99.90;;;;;;5020639;28;20429;-66
2023/05/06 05:57:28;;;;;;;36.00;20.83;;;12.10;99.90;;;;;;5019518;28;20021;-68
2023/05/06 05:59:54;;;;;;;33.63;19.80;;;12.10;99.90;;;;;;5020827;28;20030;-66
2023/05/06 06:02:20;;;;;;;31.27;19.07;;;12.10;99.90;;;;;;5028569;28;20014;-74
2023/05/06 06:04:46;;;;;;;32.93;21.03;;;12.20;99.90;;;;;;5022513;28;20106;-67
2023/05/06 06:07:11;;;;;;;35.60;21.40;;;12.20;99.90;;;;;;5032930;28;20350;-66
2023/05/06 06:09:37;;;;;;;34.53;21.13;;;12.20;99.90;;;;;;5023474;28;20333;-66
2023/05/06 06:12:03;;;;;;;39.17;20.53;;;12.20;99.90;;;;;;5018555;28;20105;-67
2023/05/06 06:14:29;;;;;;;37.80;20.13;;;12.30;99.90;;;;;;5016457;28;20022;-67
2023/05/06 06:16:55;;;;;;;44.80;21.87;;;12.40;99.90;;;;;;5019225;28;20025;-67
2023/05/06 06:19:20;;;;;;;28.63;20.23;;;12.40;99.90;;;;;;5020356;28;20022;-84
2023/05/06 06:21:46;;;;;;;30.00;17.90;;;12.50;99.90;;;;;;5016564;28;20029;-67
2023/05/06 06:24:12;;;;;;;38.67;20.70;;;12.50;99.90;;;;;;5016762;28;20424;-66
2023/05/06 06:26:38;;;;;;;28.57;18.43;;;12.50;99.90;;;;;;5017359;28;20278;-67
2023/05/06 06:29:04;;;;;;;32.30;19.73;;;12.50;99.90;;;;;;5021660;28;20026;-67
2023/05/06 06:31:30;;;;;;;33.35;19.98;;;12.50;99.90;;;;;;5017555;28;20475;-67
2023/05/06 06:33:55;;;;;;;31.43;21.20;;;12.50;99.90;;;;;;5026542;28;20076;-66
2023/05/06 06:36:21;;;;;;;35.20;20.13;;;12.50;99.90;;;;;;5026870;28;20431;-72
2023/05/06 06:38:47;;;;;;;33.57;19.90;;;12.60;99.90;;;;;;5025472;28;20029;-68
2023/05/06 06:41:13;;;;;;;32.37;19.83;;;12.70;99.90;;;;;;5029984;28;20427;-67
2023/05/06 06:43:38;;;;;;;36.10;20.20;;;12.80;99.90;;;;;;5025875;28;20543;-80
2023/05/06 06:46:04;;;;;;;41.37;22.67;;;13.00;99.90;;;;;;5020889;28;20030;-85
2023/05/06 06:48:30;;;;;;;34.87;20.37;;;13.10;99.90;;;;;;5020805;28;20029;-67
2023/05/06 06:50:55;;;;;;;32.70;20.83;;;13.20;99.90;;;;;;5021655;28;20416;-67
2023/05/06 06:53:21;;;;;;;32.90;19.70;;;13.30;99.90;;;;;;5020599;28;20038;-67
2023/05/06 06:55:47;;;;;;;29.87;19.27;;;13.40;99.90;;;;;;5025695;28;20057;-68
2023/05/06 06:58:13;;;;;;;35.20;20.47;;;13.50;99.90;;;;;;5022429;28;20376;-68
2023/05/06 07:00:38;;;;;;;36.73;21.60;;;13.70;99.90;;;;;;5024014;28;20494;-68
2023/05/06 07:03:04;;;;;;;31.97;20.03;;;13.80;99.90;;;;;;5025688;28;20025;-68
2023/05/06 07:05:30;;;;;;;36.67;22.00;;;14.00;99.90;;;;;;5015078;28;20033;-68
2023/05/06 07:07:55;;;;;;;31.33;19.73;;;14.10;99.90;;;;;;5022763;28;20041;-68
2023/05/06 07:10:22;;;;;;;31.40;19.77;;;14.20;99.90;;;;;;5027718;28;20021;-68
2023/05/06 07:12:47;;;;;;;32.40;19.02;;;14.40;99.90;;;;;;5017179;28;20040;-68
2023/05/06 07:15:13;;;;;;;31.27;19.13;;;14.40;99.90;;;;;;5023247;28;20034;-80
2023/05/06 07:17:38;;;;;;;31.03;18.27;;;14.50;99.90;;;;;;5015178;28;20050;-68
2023/05/06 07:20:05;;;;;;;27.30;18.43;;;14.70;99.90;;;;;;5016076;28;20030;-81
2023/05/06 07:22:30;;;;;;;27.83;18.40;;;14.80;99.90;;;;;;5024660;28;20052;-68
2023/05/06 07:24:56;;;;;;;33.13;19.00;;;14.90;99.90;;;;;;5015700;28;20449;-70
2023/05/06 07:27:23;;;;;;;28.83;18.33;;;15.00;99.90;;;;;;5016565;28;20057;-69
2023/05/06 07:29:49;;;;;;;30.15;19.10;;;15.10;99.90;;;;;;5015086;28;20437;-69
2023/05/06 07:32:15;;;;;;;30.13;18.88;;;15.30;99.90;;;;;;5026751;28;20130;-68
2023/05/06 07:34:41;;;;;;;39.05;22.80;;;15.60;99.90;;;;;;5033208;28;20017;-68
2023/05/06 07:37:07;;;;;;;46.90;23.03;;;16.00;99.90;;;;;;5032314;28;20120;-69
2023/05/06 07:39:33;;;;;;;30.93;19.93;;;16.60;99.90;;;;;;5027003;28;20618;-69
2023/05/06 07:41:59;;;;;;;31.17;16.90;;;17.00;99.90;;;;;;5027141;28;20118;-69
2023/05/06 07:44:24;;;;;;;30.67;16.33;;;17.20;99.90;;;;;;5032148;28;20666;-69
2023/05/06 07:46:50;;;;;;;29.47;16.87;;;17.10;99.90;;;;;;5027000;28;20324;-82
2023/05/06 07:49:16;;;;;;;28.27;17.93;;;17.00;99.90;;;;;;5023539;28;20029;-69
2023/05/06 07:51:43;;;;;;;27.67;16.80;;;16.90;99.90;;;;;;5033367;28;20448;-82
2023/05/06 07:54:08;;;;;;;;;;;16.90;99.90;;;;;;5024019;28;20083;-68
2023/05/06 07:56:34;;;;;;;24.40;16.17;;;17.00;99.90;;;;;;5025243;28;20003;-83
2023/05/06 07:59:00;;;;;;;28.20;16.30;;;17.10;99.90;;;;;;5022291;28;20026;-68
2023/05/06 08:01:28;;;;;;;30.70;16.00;;;17.20;99.90;;;;;;5027412;28;20021;-72
2023/05/06 08:03:53;;;;;;;27.50;16.65;;;17.20;99.90;;;;;;5028827;28;20037;-82
2023/05/06 08:06:19;;;;;;;26.97;15.60;;;17.40;99.90;;;;;;5026650;28;20034;-83
2023/05/06 08:08:46;;;;;;;25.37;16.27;;;17.40;99.90;;;;;;5027261;28;20027;-69
2023/05/06 08:11:12;;;;;;;27.15;15.02;;;17.40;99.90;;;;;;5026648;28;20026;-69
2023/05/06 08:13:38;;;;;;;25.33;13.40;;;17.50;99.90;;;;;;5033903;28;20036;-69
2023/05/06 08:16:05;;;;;;;22.97;14.33;;;17.60;99.90;;;;;;5032062;28;20033;-69
2023/05/06 08:18:32;;;;;;;23.15;13.27;;;17.80;99.90;;;;;;5023445;28;20277;-69
2023/05/06 08:20:58;;;;;;;23.85;14.48;;;18.20;99.90;;;;;;5026976;28;20027;-83
2023/05/06 08:23:24;;;;;;;26.13;14.68;;;18.50;99.90;;;;;;5030900;28;20040;-69
2023/05/06 08:25:50;;;;;;;33.72;15.07;;;18.80;99.90;;;;;;5028945;28;20024;-69
2023/05/06 08:28:15;;;;;;;26.40;14.27;;;19.20;99.90;;;;;;5032557;28;20025;-69
2023/05/06 08:30:41;;;;;;;19.80;12.60;;;19.40;99.90;;;;;;5030664;28;20095;-70
2023/05/06 08:33:07;;;;;;;23.57;13.40;;;19.60;99.90;;;;;;5027914;28;20656;-69
2023/05/06 08:35:33;;;;;;;24.75;13.32;;;19.80;99.90;;;;;;5028582;28;20088;-69
2023/05/06 08:37:59;;;;;;;25.97;12.57;;;20.00;99.90;;;;;;5027994;28;20022;-69
2023/05/06 08:40:26;;;;;;;21.20;11.37;;;20.10;99.90;;;;;;5027375;28;20277;-70
2023/05/06 08:42:54;;;;;;;27.80;13.10;;;20.20;99.90;;;;;;5030243;28;20026;-69
2023/05/06 08:45:20;;;;;;;26.80;13.10;;;20.20;99.90;;;;;;5021818;28;20026;-69
2023/05/06 08:47:46;;;;;;;24.83;13.03;;;20.30;99.90;;;;;;5024498;28;20379;-74
2023/05/06 08:50:12;;;;;;;23.40;11.45;;;20.40;99.90;;;;;;5026613;28;20316;-70
2023/05/06 08:52:39;;;;;;;22.77;10.13;;;20.50;99.90;;;;;;5018514;28;20026;-70
2023/05/06 08:55:06;;;;;;;23.40;10.85;;;20.50;99.90;;;;;;5020439;28;20029;-70
2023/05/06 08:57:32;;;;;;;31.52;12.45;;;20.80;99.90;;;;;;5018515;28;20486;-70
2023/05/06 08:59:58;;;;;;;23.50;11.90;;;20.90;99.90;;;;;;5030370;28;20033;-70
2023/05/06 09:02:24;;;;;;;25.60;12.02;;;20.90;99.90;;;;;;5036790;28;20052;-88
2023/05/06 09:04:55;;;;;;;26.27;14.82;;;20.80;99.90;;;;;;5026824;28;20026;-95
2023/05/06 09:07:22;;;;;;;36.90;17.70;;;20.90;99.90;;;;;;5022758;28;20413;-70
2023/05/06 09:09:47;;;;;;;;;;;20.90;99.90;;;;;;5022561;28;20038;-70
2023/05/06 09:12:13;;;;;;;29.25;16.88;;;21.00;99.90;;;;;;5021330;28;19924;-87
2023/05/06 09:14:42;;;;;;;26.67;13.30;;;21.10;99.90;;;;;;5020562;28;20034;-70
2023/05/06 09:17:24;;;;;;;20.55;12.63;;;21.10;99.90;;;;;;5031125;28;20030;-70
2023/05/06 09:19:57;;;;;;;24.75;11.52;;;21.30;99.90;;;;;;5032765;28;20029;-89
2023/05/06 09:22:25;;;;;;;23.33;11.38;;;21.50;99.90;;;;;;5032932;28;20026;-70
2023/05/06 09:24:55;;;;;;;18.45;9.60;;;21.70;99.90;;;;;;5029572;28;20290;-71
2023/05/06 09:27:31;;;;;;;21.23;10.95;;;21.80;99.90;;;;;;5033219;28;20033;-70
2023/05/06 09:30:05;;;;;;;21.93;11.70;;;21.90;99.90;;;;;;5026524;28;20050;-70
2023/05/06 09:32:31;;;;;;;29.98;12.50;;;22.00;99.90;;;;;;5024526;28;20267;-91
2023/05/06 09:34:57;;;;;;;;;;;22.00;99.90;;;;;;5033184;28;20029;-71
2023/05/06 09:37:26;;;;;;;24.50;10.85;;;22.00;99.90;;;;;;5032904;28;19959;-89
2023/05/06 09:39:58;;;;;;;21.23;11.80;;;22.20;99.90;;;;;;5031391;28;20038;-70
2023/05/06 09:42:25;;;;;;;25.73;10.98;;;22.10;99.90;;;;;;5030081;28;20030;-70
2023/05/06 09:44:56;;;;;;;19.42;10.25;;;22.30;99.90;;;;;;5032972;28;20030;-70
2023/05/06 09:47:27;;;;;;;25.25;11.82;;;22.40;99.90;;;;;;5035670;28;20026;-71
2023/05/06 09:50:01;;;;;;;19.75;10.10;;;22.20;99.90;;;;;;5033324;28;20043;-70
2023/05/06 09:52:27;;;;;;;13.60;6.03;;;22.00;99.90;;;;;;5032775;28;20057;-70
2023/05/06 09:54:54;;;;;;;16.42;7.50;;;22.00;99.90;;;;;;5032886;28;20030;-89
2023/05/06 09:57:21;;;;;;;13.10;6.15;;;22.20;99.90;;;;;;5028108;28;20031;-71
2023/05/06 09:59:47;;;;;;;;;;;22.20;99.90;;;;;;5032022;28;20049;-83
2023/05/06 10:02:13;;;;;;;11.45;5.35;;;22.10;99.90;;;;;;5032582;28;20361;-70
2023/05/06 10:04:44;;;;;;;15.20;6.32;;;22.10;99.90;;;;;;5023616;28;20041;-88
2023/05/06 10:07:14;;;;;;;14.82;7.97;;;22.30;99.90;;;;;;5035082;28;20032;-71
2023/05/06 10:09:41;;;;;;;11.63;7.10;;;22.50;99.90;;;;;;5034216;28;20030;-87
2023/05/06 10:12:08;;;;;;;12.45;7.35;;;23.00;99.90;;;;;;5029683;28;20029;-74
2023/05/06 10:14:36;;;;;;;11.95;6.32;;;23.40;99.90;;;;;;5030955;28;20474;-70
2023/05/06 10:17:07;;;;;;;14.25;6.75;;;23.50;99.90;;;;;;5022883;28;20321;-70
2023/05/06 10:19:33;;;;;;;11.98;6.63;;;23.50;99.90;;;;;;5031698;28;20044;-71
2023/05/06 10:22:10;;;;;;;14.15;5.75;;;23.50;99.90;;;;;;5026991;28;20076;-70
2023/05/06 10:24:46;;;;;;;14.50;5.80;;;23.40;99.90;;;;;;5034901;28;20030;-71
2023/05/06 10:27:17;;;;;;;12.52;5.40;;;23.20;99.90;;;;;;5028446;28;20321;-93
2023/05/06 10:29:43;;;;;;;12.48;3.60;;;23.50;99.90;;;;;;5026934;28;20033;-71
2023/05/06 10:32:11;;;;;;;9.38;3.90;;;23.60;99.90;;;;;;5028113;28;20041;-71
2023/05/06 10:34:46;;;;;;;12.65;5.00;;;23.60;99.90;;;;;;5017298;28;20034;-74
2023/05/06 10:37:13;;;;;;;14.10;5.28;;;23.70;99.90;;;;;;5024785;28;20089;-71
2023/05/06 10:39:40;;;;;;;11.43;5.43;;;23.90;99.90;;;;;;5020574;28;20025;-87
2023/05/06 10:42:10;;;;;;;13.63;5.75;;;24.10;99.90;;;;;;5029707;28;20017;-71
2023/05/06 10:45:04;;;;;;;16.27;5.82;;;24.20;99.90;;;;;;5035230;28;20108;-84
2023/05/06 10:47:55;;;;;;;12.43;6.10;;;24.40;99.90;;;;;;5021879;28;20294;-71
2023/05/06 10:50:25;;;;;;;18.38;6.53;;;24.50;99.90;;;;;;5030970;28;20513;-73
2023/05/06 10:52:56;;;;;;;14.70;6.10;;;24.60;99.90;;;;;;5031252;28;20033;-70
2023/05/06 10:55:34;;;;;;;12.18;6.68;;;24.60;99.90;;;;;;5032834;28;21628;-90
2023/05/06 10:58:02;;;;;;;15.00;6.65;;;24.50;99.90;;;;;;5033454;28;20412;-89
2023/05/06 11:00:31;;;;;;;14.52;7.45;;;24.60;99.90;;;;;;5027161;28;20033;-73
2023/05/06 11:03:01;;;;;;;14.70;6.30;;;24.60;99.90;;;;;;5030955;28;20071;-72
2023/05/06 11:05:28;;;;;;;16.73;6.72;;;24.50;99.90;;;;;;5020905;28;20049;-73
2023/05/06 11:08:05;;;;;;;;;;;24.70;99.90;;;;;;5029187;28;20033;-72
2023/05/06 11:10:33;;;;;;;12.13;6.80;;;24.70;99.90;;;;;;5031057;28;19905;-71
2023/05/06 11:13:23;;;;;;;10.73;5.13;;;24.90;99.90;;;;;;5029621;28;20021;-71
2023/05/06 11:15:50;;;;;;;9.18;5.10;;;25.10;99.90;;;;;;5033834;28;20022;-90
2023/05/06 11:18:29;;;;;;;14.35;6.30;;;25.20;99.90;;;;;;5033469;28;20337;-78
2023/05/06 11:21:01;;;;;;;9.48;4.65;;;25.20;99.90;;;;;;5030029;28;20022;-72
2023/05/06 11:23:48;;;;;;;12.45;6.03;;;25.00;99.90;;;;;;5032833;28;20018;-73
2023/05/06 11:26:14;;;;;;;13.65;6.38;;;25.10;99.90;;;;;;5026033;28;20053;-71
2023/05/06 11:28:50;;;;;;;10.73;6.82;;;25.10;99.90;;;;;;5033018;28;20287;-72
2023/05/06 11:31:16;;;;;;;14.25;7.45;;;25.20;99.90;;;;;;5034716;28;20048;-71
2023/05/06 11:33:46;;;;;;;12.82;7.78;;;25.20;99.90;;;;;;5038792;28;20048;-71
2023/05/06 11:36:19;;;;;;;16.13;7.63;;;25.10;99.90;;;;;;5022239;28;20030;-86
2023/05/06 11:38:53;;;;;;;11.13;7.40;;;25.00;99.90;;;;;;5021062;28;20017;-92
2023/05/06 11:41:20;;;;;;;14.02;7.47;;;24.90;99.90;;;;;;5018098;28;20026;-92
2023/05/06 11:43:48;;;;;;;13.35;6.95;;;25.00;99.90;;;;;;5025531;28;20447;-78
2023/05/06 11:46:14;;;;;;;9.73;5.68;;;24.80;99.90;;;;;;5031940;28;20060;-95
2023/05/06 11:48:42;;;;;;;11.05;6.13;;;24.60;99.90;;;;;;5024377;28;20034;-90
2023/05/06 11:51:08;;;;;;;11.30;6.30;;;24.50;99.90;;;;;;5022833;23;20053;-71
2023/05/06 11:53:34;;;;;;;10.00;6.35;;;24.50;99.90;;;;;;5014190;28;20026;-92
2023/05/06 11:56:04;;;;;;;12.05;6.05;;;24.40;99.90;;;;;;5006650;28;20432;-89
2023/05/06 11:58:30;;;;;;;12.20;6.47;;;24.10;99.90;;;;;;5014284;28;20034;-90
2023/05/06 12:01:01;;;;;;;10.90;4.22;;;23.90;99.90;;;;;;5014445;28;20024;-80
2023/05/06 12:03:30;;;;;;;10.43;5.22;;;23.80;99.90;;;;;;5015396;28;20306;-76
2023/05/06 12:06:00;;;;;;;12.70;5.65;;;23.60;99.90;;;;;;5016070;28;20026;-71
2023/05/06 12:08:35;;;;;;;11.73;6.07;;;23.30;99.90;;;;;;5014493;28;20018;-76
2023/05/06 12:11:07;;;;;;;12.48;6.03;;;23.10;99.90;;;;;;5011807;28;20033;-89
2023/05/06 12:13:35;;;;;;;17.23;6.80;;;23.30;99.90;;;;;;5013426;28;20041;-89
2023/05/06 12:16:03;;;;;;;6.50;4.68;;;23.60;99.90;;;;;;5013953;28;20032;-78
2023/05/06 12:18:29;;;;;;;10.55;5.57;;;23.70;99.90;;;;;;5012549;28;20453;-71
2023/05/06 12:20:55;;;;;;;;;;;23.40;99.90;;;;;;5013935;28;20069;-70
2023/05/06 12:23:21;;;;;;;11.52;6.20;;;23.20;99.90;;;;;;5014067;28;20292;-74
2023/05/06 12:26:03;;;;;;;15.48;6.45;;;23.20;99.90;;;;;;5015429;28;20501;-76
2023/05/06 12:28:30;;;;;;;9.10;5.93;;;23.10;99.90;;;;;;5014619;28;20075;-94
2023/05/06 12:30:56;;;;;;;11.77;5.78;;;22.80;99.90;;;;;;5014904;28;20028;-72
2023/05/06 12:33:22;;;;;;;10.85;6.80;;;22.70;99.90;;;;;;5016065;28;20017;-74
2023/05/06 12:35:50;;;;;;;10.25;6.10;;;22.60;99.90;;;;;;5014331;28;20399;-80